sensor_id;sensor_type;location;lat;lon;timestamp;pressure;altitude;pressure_sealevel;temperature;humidity
6668;BME280;3370;47.712;9.082;2023-04-04T00:01:39;97524.34;;;1.70;59.51
6668;BME280;3370;47.712;9.082;2023-04-04T00:04:04;97524.34;;;1.62;59.61
6668;BME280;3370;47.712;9.082;2023-04-04T00:06:30;97522.66;;;1.63;59.97
6668;BME280;3370;47.712;9.082;2023-04-04T00:08:56;97526.03;;;1.68;59.62
6668;BME280;3370;47.712;9.082;2023-04-04T00:11:22;97518.44;;;1.63;60.10
6668;BME280;3370;47.712;9.082;2023-04-04T00:13:48;97519.31;;;1.53;60.27
6668;BME280;3370;47.712;9.082;2023-04-04T00:16:14;97509.97;;;1.64;59.95
6668;BME280;3370;47.712;9.082;2023-04-04T00:18:39;97504.94;;;1.55;60.05
6668;BME280;3370;47.712;9.082;2023-04-04T00:21:05;97516.78;;;1.56;60.13
6668;BME280;3370;47.712;9.082;2023-04-04T00:23:31;97510.03;;;1.49;60.01
6668;BME280;3370;47.712;9.082;2023-04-04T00:25:57;97510.03;;;1.43;60.25
6668;BME280;3370;47.712;9.082;2023-04-04T00:28:23;97515.97;;;1.32;60.51
6668;BME280;3370;47.712;9.082;2023-04-04T00:30:48;97510.88;;;1.37;60.39
6668;BME280;3370;47.712;9.082;2023-04-04T00:33:14;97512.56;;;1.33;60.56
6668;BME280;3370;47.712;9.082;2023-04-04T00:35:40;97516.78;;;1.28;60.67
6668;BME280;3370;47.712;9.082;2023-04-04T00:38:06;97516.78;;;1.31;60.13
6668;BME280;3370;47.712;9.082;2023-04-04T00:40:40;97515.13;;;1.27;60.52
6668;BME280;3370;47.712;9.082;2023-04-04T00:43:06;97512.56;;;1.26;60.30
6668;BME280;3370;47.712;9.082;2023-04-04T00:45:33;97509.22;;;1.16;60.65
6668;BME280;3370;47.712;9.082;2023-04-04T00:48:01;97510.03;;;1.26;59.91
6668;BME280;3370;47.712;9.082;2023-04-04T00:50:27;97505.81;;;1.23;59.99
6668;BME280;3370;47.712;9.082;2023-04-04T00:52:54;97505.81;;;1.17;59.87
6668;BME280;3370;47.712;9.082;2023-04-04T00:55:19;97506.66;;;1.19;59.82
6668;BME280;3370;47.712;9.082;2023-04-04T00:57:46;97508.38;;;1.11;60.34
6668;BME280;3370;47.712;9.082;2023-04-04T01:00:13;97499.06;;;1.07;60.21
6668;BME280;3370;47.712;9.082;2023-04-04T01:02:39;97499.09;;;1.14;59.86
6668;BME280;3370;47.712;9.082;2023-04-04T01:05:06;97498.22;;;1.08;59.99
6668;BME280;3370;47.712;9.082;2023-04-04T01:07:34;97500.75;;;1.09;59.47
6668;BME280;3370;47.712;9.082;2023-04-04T01:10:01;97504.13;;;1.10;59.42
6668;BME280;3370;47.712;9.082;2023-04-04T01:12:29;97500.75;;;0.97;60.20
6668;BME280;3370;47.712;9.082;2023-04-04T01:14:55;97500.75;;;0.97;60.31
6668;BME280;3370;47.712;9.082;2023-04-04T01:17:22;97504.16;;;0.93;60.44
6668;BME280;3370;47.712;9.082;2023-04-04T01:20:10;97504.16;;;0.93;60.50
6668;BME280;3370;47.712;9.082;2023-04-04T01:22:38;97505.84;;;0.91;60.44
6668;BME280;3370;47.712;9.082;2023-04-04T01:25:06;97498.22;;;0.92;60.50
6668;BME280;3370;47.712;9.082;2023-04-04T01:27:33;97499.06;;;0.96;60.20
6668;BME280;3370;47.712;9.082;2023-04-04T01:29:59;97501.59;;;0.79;59.98
6668;BME280;3370;47.712;9.082;2023-04-04T01:35:39;97510.88;;;0.71;60.91
6668;BME280;3370;47.712;9.082;2023-04-04T01:41:09;97510.88;;;0.68;60.97
6668;BME280;3370;47.712;9.082;2023-04-04T01:43:34;97500.75;;;0.68;60.95
6668;BME280;3370;47.712;9.082;2023-04-04T01:46:01;97499.88;;;0.63;60.76
6668;BME280;3370;47.712;9.082;2023-04-04T01:48:27;97509.16;;;0.54;60.25
6668;BME280;3370;47.712;9.082;2023-04-04T01:50:53;97509.94;;;0.32;62.05
6668;BME280;3370;47.712;9.082;2023-04-04T01:53:19;97504.88;;;0.27;62.40
6668;BME280;3370;47.712;9.082;2023-04-04T01:55:45;97508.25;;;0.28;61.86
6668;BME280;3370;47.712;9.082;2023-04-04T01:58:11;97503.13;;;0.12;63.21
6668;BME280;3370;47.712;9.082;2023-04-04T02:00:37;97506.56;;;0.24;62.34
6668;BME280;3370;47.712;9.082;2023-04-04T02:03:02;97504.84;;;0.23;62.55
6668;BME280;3370;47.712;9.082;2023-04-04T02:05:28;97495.59;;;0.29;62.13
6668;BME280;3370;47.712;9.082;2023-04-04T02:07:54;97496.47;;;0.42;61.46
6668;BME280;3370;47.712;9.082;2023-04-04T02:10:20;97498.19;;;0.49;61.45
6668;BME280;3370;47.712;9.082;2023-04-04T02:12:46;97504.94;;;0.47;61.26
6668;BME280;3370;47.712;9.082;2023-04-04T02:15:12;97504.06;;;0.39;61.81
6668;BME280;3370;47.712;9.082;2023-04-04T02:17:37;97500.66;;;0.31;61.97
6668;BME280;3370;47.712;9.082;2023-04-04T02:20:05;97501.50;;;0.30;61.86
6668;BME280;3370;47.712;9.082;2023-04-04T02:22:31;97499.84;;;0.41;61.43
6668;BME280;3370;47.712;9.082;2023-04-04T02:24:57;97496.44;;;0.27;62.21
6668;BME280;3370;47.712;9.082;2023-04-04T02:27:24;97493.88;;;0.13;62.59
6668;BME280;3370;47.712;9.082;2023-04-04T02:29:50;97494.72;;;0.19;62.36
6668;BME280;3370;47.712;9.082;2023-04-04T02:32:17;97491.34;;;0.11;63.00
6668;BME280;3370;47.712;9.082;2023-04-04T02:34:42;97489.56;;;-0.02;62.77
6668;BME280;3370;47.712;9.082;2023-04-04T02:37:09;97496.34;;;0.02;62.64
6668;BME280;3370;47.712;9.082;2023-04-04T02:39:34;97493.78;;;-0.10;63.29
6668;BME280;3370;47.712;9.082;2023-04-04T02:42:00;97489.50;;;-0.21;64.02
6668;BME280;3370;47.712;9.082;2023-04-04T02:44:26;97487.78;;;-0.31;63.84
6668;BME280;3370;47.712;9.082;2023-04-04T02:46:52;97484.38;;;-0.33;63.15
6668;BME280;3370;47.712;9.082;2023-04-04T02:49:17;97486.97;;;-0.27;63.51
6668;BME280;3370;47.712;9.082;2023-04-04T02:51:43;97485.19;;;-0.39;64.57
6668;BME280;3370;47.712;9.082;2023-04-04T02:54:09;97485.25;;;-0.32;64.50
6668;BME280;3370;47.712;9.082;2023-04-04T02:56:36;97482.75;;;-0.25;64.42
6668;BME280;3370;47.712;9.082;2023-04-04T02:59:03;97486.94;;;-0.24;63.99
6668;BME280;3370;47.712;9.082;2023-04-04T03:01:29;97484.31;;;-0.44;64.26
6668;BME280;3370;47.712;9.082;2023-04-04T03:03:55;97485.25;;;-0.32;63.55
6668;BME280;3370;47.712;9.082;2023-04-04T03:06:21;97493.56;;;-0.50;64.53
6668;BME280;3370;47.712;9.082;2023-04-04T03:08:47;97490.25;;;-0.42;64.49
6668;BME280;3370;47.712;9.082;2023-04-04T03:11:17;97491.16;;;-0.26;63.42
6668;BME280;3370;47.712;9.082;2023-04-04T03:13:44;97497.88;;;-0.29;63.83
6668;BME280;3370;47.712;9.082;2023-04-04T03:16:11;97485.22;;;-0.35;64.04
6668;BME280;3370;47.712;9.082;2023-04-04T03:18:39;97486.88;;;-0.45;64.46
6668;BME280;3370;47.712;9.082;2023-04-04T03:21:05;97486.00;;;-0.50;64.58
6668;BME280;3370;47.712;9.082;2023-04-04T03:23:31;97483.53;;;-0.41;63.98
6668;BME280;3370;47.712;9.082;2023-04-04T03:25:57;97480.09;;;-0.54;65.07
6668;BME280;3370;47.712;9.082;2023-04-04T03:28:22;97481.75;;;-0.53;64.41
6668;BME280;3370;47.712;9.082;2023-04-04T03:30:48;97491.09;;;-0.41;64.01
6668;BME280;3370;47.712;9.082;2023-04-04T03:33:14;97479.28;;;-0.45;64.71
6668;BME280;3370;47.712;9.082;2023-04-04T03:35:41;97474.25;;;-0.45;64.47
6668;BME280;3370;47.712;9.082;2023-04-04T03:38:07;97472.50;;;-0.49;64.37
6668;BME280;3370;47.712;9.082;2023-04-04T03:40:34;97470.00;;;-0.52;63.88
6668;BME280;3370;47.712;9.082;2023-04-04T03:43:00;97467.38;;;-0.65;64.37
6668;BME280;3370;47.712;9.082;2023-04-04T03:45:27;97472.38;;;-0.71;64.79
6668;BME280;3370;47.712;9.082;2023-04-04T03:47:55;97469.00;;;-0.76;65.41
6668;BME280;3370;47.712;9.082;2023-04-04T03:50:20;97475.84;;;-0.56;64.76
6668;BME280;3370;47.712;9.082;2023-04-04T03:52:46;97477.44;;;-0.71;65.16
6668;BME280;3370;47.712;9.082;2023-04-04T03:55:12;97474.91;;;-0.69;64.86
6668;BME280;3370;47.712;9.082;2023-04-04T03:57:38;97473.16;;;-0.83;65.86
6668;BME280;3370;47.712;9.082;2023-04-04T04:00:05;97472.50;;;-0.55;64.66
6668;BME280;3370;47.712;9.082;2023-04-04T04:02:30;97479.97;;;-0.72;65.76
6668;BME280;3370;47.712;9.082;2023-04-04T04:04:56;97477.44;;;-0.74;66.25
6668;BME280;3370;47.712;9.082;2023-04-04T04:07:22;97485.81;;;-0.81;65.74
6668;BME280;3370;47.712;9.082;2023-04-04T04:09:48;97474.06;;;-0.73;65.47
6668;BME280;3370;47.712;9.082;2023-04-04T04:12:13;97487.47;;;-0.80;66.05
6668;BME280;3370;47.712;9.082;2023-04-04T04:14:39;97480.78;;;-0.75;65.88
6668;BME280;3370;47.712;9.082;2023-04-04T04:17:06;97484.94;;;-0.82;66.24
6668;BME280;3370;47.712;9.082;2023-04-04T04:19:32;97484.81;;;-0.99;66.81
6668;BME280;3370;47.712;9.082;2023-04-04T04:21:57;97484.88;;;-0.91;67.10
6668;BME280;3370;47.712;9.082;2023-04-04T04:24:23;97483.25;;;-0.84;66.49
6668;BME280;3370;47.712;9.082;2023-04-04T04:26:49;97494.16;;;-0.88;66.77
6668;BME280;3370;47.712;9.082;2023-04-04T04:29:15;97491.59;;;-0.93;67.19
6668;BME280;3370;47.712;9.082;2023-04-04T04:31:41;97496.72;;;-0.84;66.36
6668;BME280;3370;47.712;9.082;2023-04-04T04:34:06;97492.41;;;-0.99;67.21
6668;BME280;3370;47.712;9.082;2023-04-04T04:36:36;97501.56;;;-1.10;68.12
6668;BME280;3370;47.712;9.082;2023-04-04T04:39:02;97496.53;;;-1.05;67.61
6668;BME280;3370;47.712;9.082;2023-04-04T04:41:28;97499.88;;;-1.11;68.27
6668;BME280;3370;47.712;9.082;2023-04-04T04:43:55;97498.97;;;-1.19;67.88
6668;BME280;3370;47.712;9.082;2023-04-04T04:46:20;97502.34;;;-1.17;67.04
6668;BME280;3370;47.712;9.082;2023-04-04T04:48:46;97502.38;;;-1.16;67.47
6668;BME280;3370;47.712;9.082;2023-04-04T04:51:12;97507.47;;;-1.08;67.01
6668;BME280;3370;47.712;9.082;2023-04-04T04:53:40;97524.09;;;-1.31;68.44
6668;BME280;3370;47.712;9.082;2023-04-04T04:56:06;97518.34;;;-1.15;67.56
6668;BME280;3370;47.712;9.082;2023-04-04T04:58:32;97527.53;;;-1.23;68.24
6668;BME280;3370;47.712;9.082;2023-04-04T05:00:58;97523.47;;;-1.04;67.30
6668;BME280;3370;47.712;9.082;2023-04-04T05:03:24;97524.16;;;-1.22;68.87
6668;BME280;3370;47.712;9.082;2023-04-04T05:05:50;97520.88;;;-1.15;67.86
6668;BME280;3370;47.712;9.082;2023-04-04T05:08:16;97517.59;;;-1.05;67.38
6668;BME280;3370;47.712;9.082;2023-04-04T05:10:42;97525.91;;;-1.15;68.43
6668;BME280;3370;47.712;9.082;2023-04-04T05:13:08;97518.31;;;-1.17;68.36
6668;BME280;3370;47.712;9.082;2023-04-04T05:15:34;97531.75;;;-1.21;68.71
6668;BME280;3370;47.712;9.082;2023-04-04T05:18:00;97524.25;;;-1.13;68.48
6668;BME280;3370;47.712;9.082;2023-04-04T05:20:26;97515.09;;;-1.03;68.34
6668;BME280;3370;47.712;9.082;2023-04-04T05:22:52;97520.97;;;-1.03;67.98
6668;BME280;3370;47.712;9.082;2023-04-04T05:25:18;97527.00;;;-0.88;67.38
6668;BME280;3370;47.712;9.082;2023-04-04T05:27:47;97520.22;;;-0.94;67.95
6668;BME280;3370;47.712;9.082;2023-04-04T05:30:14;97521.25;;;-0.66;67.18
6668;BME280;3370;47.712;9.082;2023-04-04T05:32:39;97525.53;;;-0.57;66.35
6668;BME280;3370;47.712;9.082;2023-04-04T05:35:06;97530.56;;;-0.59;66.82
6668;BME280;3370;47.712;9.082;2023-04-04T05:37:32;97532.97;;;-0.75;67.40
6668;BME280;3370;47.712;9.082;2023-04-04T05:39:58;97528.00;;;-0.65;67.05
6668;BME280;3370;47.712;9.082;2023-04-04T05:42:24;97529.63;;;-0.73;66.98
6668;BME280;3370;47.712;9.082;2023-04-04T05:44:49;97533.91;;;-0.61;66.60
6668;BME280;3370;47.712;9.082;2023-04-04T05:47:16;97529.72;;;-0.59;66.54
6668;BME280;3370;47.712;9.082;2023-04-04T05:49:42;97535.63;;;-0.59;67.12
6668;BME280;3370;47.712;9.082;2023-04-04T05:52:07;97533.06;;;-0.60;67.78
6668;BME280;3370;47.712;9.082;2023-04-04T05:54:34;97536.53;;;-0.44;66.24
6668;BME280;3370;47.712;9.082;2023-04-04T05:57:00;97541.63;;;-0.43;66.26
6668;BME280;3370;47.712;9.082;2023-04-04T05:59:26;97539.78;;;-0.67;67.03
6668;BME280;3370;47.712;9.082;2023-04-04T06:01:53;97549.00;;;-0.67;67.19
6668;BME280;3370;47.712;9.082;2023-04-04T06:04:18;97548.13;;;-0.71;67.12
6668;BME280;3370;47.712;9.082;2023-04-04T06:06:44;97546.50;;;-0.69;68.00
6668;BME280;3370;47.712;9.082;2023-04-04T06:09:11;97549.88;;;-0.64;67.67
6668;BME280;3370;47.712;9.082;2023-04-04T06:11:37;97547.34;;;-0.64;67.28
6668;BME280;3370;47.712;9.082;2023-04-04T06:14:02;97555.91;;;-0.48;66.93
6668;BME280;3370;47.712;9.082;2023-04-04T06:16:28;97550.91;;;-0.42;66.93
6668;BME280;3370;47.712;9.082;2023-04-04T06:18:54;97545.97;;;-0.22;65.57
6668;BME280;3370;47.712;9.082;2023-04-04T06:21:20;97553.47;;;-0.32;66.51
6668;BME280;3370;47.712;9.082;2023-04-04T06:23:46;97548.50;;;-0.22;65.61
6668;BME280;3370;47.712;9.082;2023-04-04T06:26:11;97543.38;;;-0.28;66.47
6668;BME280;3370;47.712;9.082;2023-04-04T06:28:45;97552.69;;;-0.22;65.60
6668;BME280;3370;47.712;9.082;2023-04-04T06:31:11;97550.22;;;-0.11;65.09
6668;BME280;3370;47.712;9.082;2023-04-04T06:33:37;97556.97;;;-0.10;65.29
6668;BME280;3370;47.712;9.082;2023-04-04T06:36:03;97547.69;;;-0.11;65.75
6668;BME280;3370;47.712;9.082;2023-04-04T06:38:28;97550.31;;;0.04;65.03
6668;BME280;3370;47.712;9.082;2023-04-04T06:40:54;97552.88;;;0.15;64.97
6668;BME280;3370;47.712;9.082;2023-04-04T06:43:21;97552.94;;;0.32;64.07
6668;BME280;3370;47.712;9.082;2023-04-04T06:45:48;97547.84;;;0.21;63.97
6668;BME280;3370;47.712;9.082;2023-04-04T06:48:14;97553.75;;;0.18;64.24
6668;BME280;3370;47.712;9.082;2023-04-04T06:50:40;97547.88;;;0.30;62.74
6668;BME280;3370;47.712;9.082;2023-04-04T06:53:06;97548.72;;;0.34;62.25
6668;BME280;3370;47.712;9.082;2023-04-04T06:55:33;97552.09;;;0.34;61.16
6668;BME280;3370;47.712;9.082;2023-04-04T06:57:59;97549.53;;;0.22;62.18
6668;BME280;3370;47.712;9.082;2023-04-04T07:00:25;97548.72;;;0.31;61.66
6668;BME280;3370;47.712;9.082;2023-04-04T07:02:59;97543.63;;;0.25;62.36
6668;BME280;3370;47.712;9.082;2023-04-04T07:05:26;97541.94;;;0.21;61.75
6668;BME280;3370;47.712;9.082;2023-04-04T07:07:55;97546.16;;;0.18;63.02
6668;BME280;3370;47.712;9.082;2023-04-04T07:10:25;97544.47;;;0.21;64.02
6668;BME280;3370;47.712;9.082;2023-04-04T07:12:51;97546.22;;;0.37;63.99
6668;BME280;3370;47.712;9.082;2023-04-04T07:15:17;97545.41;;;0.47;61.65
6668;BME280;3370;47.712;9.082;2023-04-04T07:17:43;97546.28;;;0.57;63.29
6668;BME280;3370;47.712;9.082;2023-04-04T07:20:09;97546.28;;;0.66;63.10
6668;BME280;3370;47.712;9.082;2023-04-04T07:22:39;97548.00;;;0.83;62.28
6668;BME280;3370;47.712;9.082;2023-04-04T07:25:06;97553.94;;;0.89;59.56
6668;BME280;3370;47.712;9.082;2023-04-04T07:27:35;97553.91;;;0.92;59.31
6668;BME280;3370;47.712;9.082;2023-04-04T07:30:02;97540.44;;;0.98;60.64
6668;BME280;3370;47.712;9.082;2023-04-04T07:32:28;97540.44;;;1.17;59.25
6668;BME280;3370;47.712;9.082;2023-04-04T07:34:54;97536.22;;;1.25;58.47
6668;BME280;3370;47.712;9.082;2023-04-04T07:37:20;97537.06;;;1.41;57.74
6668;BME280;3370;47.712;9.082;2023-04-04T07:39:46;97541.28;;;1.37;58.11
6668;BME280;3370;47.712;9.082;2023-04-04T07:42:15;97534.50;;;1.61;56.72
6668;BME280;3370;47.712;9.082;2023-04-04T07:44:41;97532.78;;;1.64;56.75
6668;BME280;3370;47.712;9.082;2023-04-04T07:47:07;97531.94;;;1.75;57.08
6668;BME280;3370;47.712;9.082;2023-04-04T07:49:33;97537.81;;;1.86;57.02
6668;BME280;3370;47.712;9.082;2023-04-04T07:51:58;97530.19;;;1.94;55.18
6668;BME280;3370;47.712;9.082;2023-04-04T07:54:24;97530.16;;;2.09;54.89
6668;BME280;3370;47.712;9.082;2023-04-04T07:56:50;97530.16;;;2.07;55.54
6668;BME280;3370;47.712;9.082;2023-04-04T07:59:16;97531.78;;;2.21;54.86
6668;BME280;3370;47.712;9.082;2023-04-04T08:01:42;97536.84;;;2.22;54.59
6668;BME280;3370;47.712;9.082;2023-04-04T08:04:08;97533.44;;;2.31;54.15
6668;BME280;3370;47.712;9.082;2023-04-04T08:06:33;97532.59;;;2.27;56.44
6668;BME280;3370;47.712;9.082;2023-04-04T08:09:01;97524.94;;;2.38;55.30
6668;BME280;3370;47.712;9.082;2023-04-04T08:11:27;97529.97;;;2.51;54.80
6668;BME280;3370;47.712;9.082;2023-04-04T08:13:53;97529.03;;;2.61;53.13
6668;BME280;3370;47.712;9.082;2023-04-04T08:16:19;97531.63;;;2.58;53.25
6668;BME280;3370;47.712;9.082;2023-04-04T08:18:45;97532.41;;;2.64;52.92
6668;BME280;3370;47.712;9.082;2023-04-04T08:21:11;97524.66;;;2.84;52.46
6668;BME280;3370;47.712;9.082;2023-04-04T08:23:37;97517.88;;;2.88;51.26
6668;BME280;3370;47.712;9.082;2023-04-04T08:26:03;97517.03;;;2.89;52.77
6668;BME280;3370;47.712;9.082;2023-04-04T08:28:28;97526.22;;;3.04;53.07
6668;BME280;3370;47.712;9.082;2023-04-04T08:30:54;97514.41;;;3.03;54.49
6668;BME280;3370;47.712;9.082;2023-04-04T08:33:21;97519.34;;;3.21;52.23
6668;BME280;3370;47.712;9.082;2023-04-04T08:35:49;97528.59;;;3.30;51.91
6668;BME280;3370;47.712;9.082;2023-04-04T08:38:15;97521.72;;;3.35;49.23
6668;BME280;3370;47.712;9.082;2023-04-04T08:40:45;97518.34;;;3.38;50.68
6668;BME280;3370;47.712;9.082;2023-04-04T08:43:14;97516.59;;;3.44;51.11
6668;BME280;3370;47.712;9.082;2023-04-04T08:45:42;97515.59;;;3.61;50.01
6668;BME280;3370;47.712;9.082;2023-04-04T08:48:10;97507.16;;;3.56;49.67
6668;BME280;3370;47.712;9.082;2023-04-04T08:50:40;97514.00;;;3.49;49.65
6668;BME280;3370;47.712;9.082;2023-04-04T08:53:09;97530.88;;;3.55;50.66
6668;BME280;3370;47.712;9.082;2023-04-04T08:55:39;97522.19;;;3.79;51.13
6668;BME280;3370;47.712;9.082;2023-04-04T08:58:06;97525.41;;;3.93;48.76
6668;BME280;3370;47.712;9.082;2023-04-04T09:00:32;97517.75;;;3.95;48.95
6668;BME280;3370;47.712;9.082;2023-04-04T09:03:24;97531.13;;;4.14;51.62
6668;BME280;3370;47.712;9.082;2023-04-04T09:05:54;97530.09;;;4.29;50.96
6668;BME280;3370;47.712;9.082;2023-04-04T09:08:20;97519.97;;;4.24;49.03
6668;BME280;3370;47.712;9.082;2023-04-04T09:10:48;97526.72;;;4.28;49.00
6668;BME280;3370;47.712;9.082;2023-04-04T09:13:14;97520.69;;;4.35;49.82
6668;BME280;3370;47.712;9.082;2023-04-04T09:15:47;97519.66;;;4.49;49.13
6668;BME280;3370;47.712;9.082;2023-04-04T09:18:14;97519.50;;;4.61;48.20
6668;BME280;3370;47.712;9.082;2023-04-04T09:20:45;97520.38;;;4.58;47.62
6668;BME280;3370;47.712;9.082;2023-04-04T09:23:16;97517.91;;;4.52;46.86
6668;BME280;3370;47.712;9.082;2023-04-04T09:26:03;97516.25;;;4.50;48.20
6668;BME280;3370;47.712;9.082;2023-04-04T09:28:29;97510.16;;;4.60;48.66
6668;BME280;3370;47.712;9.082;2023-04-04T09:30:55;97512.78;;;4.57;47.33
6668;BME280;3370;47.712;9.082;2023-04-04T09:33:22;97509.28;;;4.64;47.67
6668;BME280;3370;47.712;9.082;2023-04-04T09:36:02;97521.22;;;4.60;47.32
6668;BME280;3370;47.712;9.082;2023-04-04T09:38:29;97516.16;;;4.56;46.29
6668;BME280;3370;47.712;9.082;2023-04-04T09:40:58;97512.56;;;4.69;46.70
6668;BME280;3370;47.712;9.082;2023-04-04T09:43:24;97515.13;;;4.69;45.66
6668;BME280;3370;47.712;9.082;2023-04-04T09:45:51;97515.06;;;4.74;45.23
6668;BME280;3370;47.712;9.082;2023-04-04T09:48:30;97514.91;;;4.86;45.87
6668;BME280;3370;47.712;9.082;2023-04-04T09:50:57;97513.97;;;4.92;44.59
6668;BME280;3370;47.712;9.082;2023-04-04T09:53:24;97509.56;;;5.00;46.03
6668;BME280;3370;47.712;9.082;2023-04-04T09:55:52;97517.19;;;5.02;47.12
6668;BME280;3370;47.712;9.082;2023-04-04T09:58:25;97512.88;;;5.07;46.27
6668;BME280;3370;47.712;9.082;2023-04-04T10:00:54;97510.19;;;5.14;44.05
6668;BME280;3370;47.712;9.082;2023-04-04T10:03:22;97513.44;;;5.26;44.55
6668;BME280;3370;47.712;9.082;2023-04-04T10:06:09;97509.19;;;5.26;44.84
6668;BME280;3370;47.712;9.082;2023-04-04T10:08:39;97500.47;;;5.38;49.50
6668;BME280;3370;47.712;9.082;2023-04-04T10:11:05;97509.28;;;5.70;48.48
6668;BME280;3370;47.712;9.082;2023-04-04T10:13:36;97521.22;;;5.68;44.46
6668;BME280;3370;47.712;9.082;2023-04-04T10:16:05;97513.63;;;5.65;44.92
6668;BME280;3370;47.712;9.082;2023-04-04T10:18:33;97515.41;;;5.58;44.22
6668;BME280;3370;47.712;9.082;2023-04-04T10:21:05;97506.88;;;5.61;42.50
6668;BME280;3370;47.712;9.082;2023-04-04T10:23:31;97499.41;;;5.51;43.11
6668;BME280;3370;47.712;9.082;2023-04-04T10:25:59;97517.31;;;5.48;42.25
6668;BME280;3370;47.712;9.082;2023-04-04T10:28:26;97522.25;;;5.56;43.06
6668;BME280;3370;47.712;9.082;2023-04-04T10:36:50;97513.06;;;5.97;42.59
6668;BME280;3370;47.712;9.082;2023-04-04T10:39:32;97516.38;;;6.01;42.60
6668;BME280;3370;47.712;9.082;2023-04-04T10:42:04;97518.66;;;6.14;41.10
6668;BME280;3370;47.712;9.082;2023-04-04T10:44:33;97511.72;;;6.21;41.94
6668;BME280;3370;47.712;9.082;2023-04-04T10:47:18;97503.53;;;6.47;41.74
6668;BME280;3370;47.712;9.082;2023-04-04T10:49:47;97503.59;;;6.44;41.57
6668;BME280;3370;47.712;9.082;2023-04-04T10:52:19;97509.00;;;6.69;41.72
6668;BME280;3370;47.712;9.082;2023-04-04T10:54:46;97502.00;;;6.78;41.85
6668;BME280;3370;47.712;9.082;2023-04-04T10:57:14;97503.25;;;6.97;41.43
6668;BME280;3370;47.712;9.082;2023-04-04T11:00:02;97487.72;;;7.05;40.94
6668;BME280;3370;47.712;9.082;2023-04-04T11:02:58;97497.31;;;7.33;40.82
6668;BME280;3370;47.712;9.082;2023-04-04T11:05:33;97494.22;;;7.85;40.09
6668;BME280;3370;47.712;9.082;2023-04-04T11:08:06;97486.75;;;8.09;38.92
6668;BME280;3370;47.712;9.082;2023-04-04T11:13:17;97491.44;;;9.11;36.85
6668;BME280;3370;47.712;9.082;2023-04-04T11:15:53;97487.47;;;9.54;36.32
6668;BME280;3370;47.712;9.082;2023-04-04T11:21:00;97487.91;;;9.90;35.48
6668;BME280;3370;47.712;9.082;2023-04-04T11:23:26;97477.94;;;10.53;34.96
6668;BME280;3370;47.712;9.082;2023-04-04T11:25:55;97482.97;;;11.01;35.55
6668;BME280;3370;47.712;9.082;2023-04-04T11:39:14;97473.25;;;13.40;31.68
6668;BME280;3370;47.712;9.082;2023-04-04T11:41:47;97486.41;;;13.86;29.28
6668;BME280;3370;47.712;9.082;2023-04-04T11:44:14;97477.31;;;14.28;28.44
6668;BME280;3370;47.712;9.082;2023-04-04T11:46:41;97479.53;;;14.84;27.80
6668;BME280;3370;47.712;9.082;2023-04-04T11:49:07;97477.31;;;14.62;26.60
6668;BME280;3370;47.712;9.082;2023-04-04T11:51:35;97478.00;;;15.11;27.46
6668;BME280;3370;47.712;9.082;2023-04-04T11:54:01;97471.09;;;15.57;27.07
6668;BME280;3370;47.712;9.082;2023-04-04T11:56:27;97478.53;;;15.63;26.48
6668;BME280;3370;47.712;9.082;2023-04-04T11:58:53;97464.16;;;15.71;26.80
6668;BME280;3370;47.712;9.082;2023-04-04T12:01:19;97468.75;;;15.82;26.55
6668;BME280;3370;47.712;9.082;2023-04-04T12:03:47;97462.56;;;15.85;25.88
6668;BME280;3370;47.712;9.082;2023-04-04T12:06:14;97464.13;;;16.02;26.80
6668;BME280;3370;47.712;9.082;2023-04-04T12:08:41;97459.09;;;16.27;26.25
6668;BME280;3370;47.712;9.082;2023-04-04T12:11:08;97455.84;;;16.80;25.83
6668;BME280;3370;47.712;9.082;2023-04-04T12:13:43;97457.91;;;16.75;25.64
6668;BME280;3370;47.712;9.082;2023-04-04T12:16:13;97451.56;;;17.33;25.51
6668;BME280;3370;47.712;9.082;2023-04-04T12:18:38;97457.38;;;17.90;24.20
6668;BME280;3370;47.712;9.082;2023-04-04T12:21:05;97450.44;;;17.50;24.90
6668;BME280;3370;47.712;9.082;2023-04-04T12:23:33;97452.16;;;17.90;26.12
6668;BME280;3370;47.712;9.082;2023-04-04T12:26:00;97458.25;;;18.64;24.10
6668;BME280;3370;47.712;9.082;2023-04-04T12:28:29;97463.72;;;18.48;22.43
6668;BME280;3370;47.712;9.082;2023-04-04T12:30:57;97457.16;;;18.06;22.57
6668;BME280;3370;47.712;9.082;2023-04-04T12:33:33;97464.38;;;18.39;22.65
6668;BME280;3370;47.712;9.082;2023-04-04T12:36:00;97459.53;;;18.95;23.36
6668;BME280;3370;47.712;9.082;2023-04-04T12:38:29;97459.72;;;19.63;21.71
6668;BME280;3370;47.712;9.082;2023-04-04T12:40:56;97458.44;;;19.22;21.98
6668;BME280;3370;47.712;9.082;2023-04-04T12:43:28;97454.59;;;19.39;23.27
6668;BME280;3370;47.712;9.082;2023-04-04T12:45:56;97458.41;;;19.93;20.55
6668;BME280;3370;47.712;9.082;2023-04-04T12:48:27;97454.59;;;19.86;21.46
6668;BME280;3370;47.712;9.082;2023-04-04T12:50:58;97454.66;;;19.26;21.16
6668;BME280;3370;47.712;9.082;2023-04-04T12:53:28;97449.59;;;19.01;21.51
6668;BME280;3370;47.712;9.082;2023-04-04T12:55:59;97459.75;;;18.55;20.90
6668;BME280;3370;47.712;9.082;2023-04-04T12:58:25;97446.50;;;18.58;21.69
6668;BME280;3370;47.712;9.082;2023-04-04T13:00:53;97446.63;;;18.57;23.63
6668;BME280;3370;47.712;9.082;2023-04-04T13:03:21;97453.31;;;19.09;22.77
6668;BME280;3370;47.712;9.082;2023-04-04T13:05:49;97447.28;;;19.56;21.95
6668;BME280;3370;47.712;9.082;2023-04-04T13:08:15;97447.25;;;19.80;21.76
6668;BME280;3370;47.712;9.082;2023-04-04T13:11:11;97458.31;;;19.70;21.69
6668;BME280;3370;47.712;9.082;2023-04-04T13:13:39;97455.22;;;20.23;20.78
6668;BME280;3370;47.712;9.082;2023-04-04T13:16:27;97447.44;;;20.44;20.98
6668;BME280;3370;47.712;9.082;2023-04-04T13:18:54;97454.38;;;20.00;20.96
6668;BME280;3370;47.712;9.082;2023-04-04T13:21:20;97448.56;;;19.39;22.26
6668;BME280;3370;47.712;9.082;2023-04-04T13:23:46;97443.91;;;20.34;21.35
6668;BME280;3370;47.712;9.082;2023-04-04T13:26:12;97439.25;;;20.49;20.76
6668;BME280;3370;47.712;9.082;2023-04-04T13:28:38;97442.97;;;19.90;20.52
6668;BME280;3370;47.712;9.082;2023-04-04T13:31:06;97447.16;;;19.46;20.70
6668;BME280;3370;47.712;9.082;2023-04-04T13:33:33;97431.69;;;19.31;20.45
6668;BME280;3370;47.712;9.082;2023-04-04T13:36:00;97434.00;;;19.12;21.02
6668;BME280;3370;47.712;9.082;2023-04-04T13:38:27;97435.34;;;18.69;20.86
6668;BME280;3370;47.712;9.082;2023-04-04T13:40:55;97434.47;;;17.95;22.00
6668;BME280;3370;47.712;9.082;2023-04-04T13:43:21;97439.63;;;17.69;24.05
6668;BME280;3370;47.712;9.082;2023-04-04T13:45:47;97439.25;;;18.01;23.41
6668;BME280;3370;47.712;9.082;2023-04-04T13:48:13;97426.22;;;17.37;24.30
6668;BME280;3370;47.712;9.082;2023-04-04T13:50:40;97434.13;;;17.35;24.70
6668;BME280;3370;47.712;9.082;2023-04-04T13:53:09;97444.28;;;17.38;23.78
6668;BME280;3370;47.712;9.082;2023-04-04T13:55:36;97433.13;;;17.11;22.98
6668;BME280;3370;47.712;9.082;2023-04-04T13:58:02;97435.56;;;16.72;23.54